Dorchester, New Hampshire
Current Conditions -  °F | °C
As of 3:55 PM on Wednesday 26 Nov 2014 (Local Time) from K1P1 Reporting Station
Moderate Snow Moderate Snow  
Wind Chill: 32°   Ceiling: 500
Heat Index: 32°   Visibility: 0.75mi
Dew Point: 32°   Wind: 0mph
Humidity: 100%   Direction: NA
Pressure: 30.08"   Gusts: NA
Location:  43.7922°N, 71.8971°W
Report Text: K1P1 262055Z AUTO 00000KT 3/4SM SN OVC005 00/00 A3008 RMK AO2 P0009 60022 T00000000
Loading
Personal Weather Stations






























Interactive Weather Map New forecast layout! Learn more

10-Day Weather Forecast

Advertisements
Track Severe Weather on mobile